Terminal Aerodrome Forecast
Issued by NWS Paducah, KY

Home | Current Version | Previous Version | Graphics & Text | Print | Product List | Glossary On
Versions: 1 2 3 4 5 6 7 8 9 10 11 12 13 14 15 16 17 18 19 20 21 22 23 24 25 26 27 28 29 30
238
FTUS43 KPAH 291120
TAFPAH
TAF
KPAH 291120Z 2912/3012 00000KT P6SM BKN100
     FM291400 VRB03KT P6SM BKN015
     FM291700 VRB04KT P6SM BKN030
     FM300000 VRB02KT P6SM SCT040 BKN080
     FM300600 00000KT 4SM BR SCT080
      TEMPO 3008/3012 2SM BR SCT005=

USA.gov is the U.S. government's official web portal to all federal, state and local government web resources and services.